Time;durP1;ratioP1;P1;durP2;ratioP2;P2;SDS_P1;SDS_P2;PMS_P1;PMS_P2;Temp;Humidity;BMP_temperature;BMP_pressure;BME280_temperature;BME280_humidity;BME280_pressure;Samples;Min_cycle;Max_cycle;Signal;HPM_P1;HPM_P2
2023/02/27 00:02:19;;;;;;;25.13;9.35;;;;;;;2.35;100.00;102184.63;4939455;28;20109;-80
2023/02/27 00:04:45;;;;;;;22.23;9.05;;;;;;;2.30;100.00;102191.75;4955421;28;20086;-80
2023/02/27 00:07:11;;;;;;;21.83;8.82;;;;;;;2.23;100.00;102185.84;4955820;28;20035;-79
2023/02/27 00:09:38;;;;;;;20.55;8.63;;;;;;;2.15;100.00;102189.59;4955236;28;20501;-80
2023/02/27 00:12:04;;;;;;;18.02;7.38;;;;;;;2.04;100.00;102187.31;4955115;28;20169;-80
2023/02/27 00:14:30;;;;;;;16.88;8.02;;;;;;;1.96;100.00;102187.50;4972461;28;20041;-80
2023/02/27 00:16:56;;;;;;;23.23;9.05;;;;;;;2.01;100.00;102193.47;4967300;28;20038;-79
2023/02/27 00:19:22;;;;;;;22.48;8.48;;;;;;;2.00;100.00;102196.97;4962593;28;20061;-80
2023/02/27 00:21:48;;;;;;;20.20;8.48;;;;;;;1.98;100.00;102198.78;4948126;28;20043;-80
2023/02/27 00:24:13;;;;;;;23.35;8.23;;;;;;;1.95;100.00;102198.84;4953454;28;20042;-80
2023/02/27 00:26:39;;;;;;;18.92;7.68;;;;;;;1.92;100.00;102205.03;4970590;28;20527;-79
2023/02/27 00:29:05;;;;;;;25.13;8.95;;;;;;;1.86;100.00;102200.00;4946140;28;20042;-80
2023/02/27 00:31:32;;;;;;;20.05;8.10;;;;;;;1.83;100.00;102195.69;4933558;28;20512;-80
2023/02/27 00:33:57;;;;;;;18.73;8.00;;;;;;;1.84;100.00;102202.66;4973857;28;20037;-80
2023/02/27 00:36:23;;;;;;;19.05;7.63;;;;;;;1.88;100.00;102202.56;4971854;28;20031;-79
2023/02/27 00:38:49;;;;;;;23.85;7.68;;;;;;;1.88;100.00;102208.59;4947640;28;20035;-80
2023/02/27 00:41:15;;;;;;;16.20;7.43;;;;;;;1.90;100.00;102203.34;4953876;28;20139;-79
2023/02/27 00:43:40;;;;;;;16.80;6.47;;;;;;;1.93;100.00;102217.16;4949966;29;21156;-80
2023/02/27 00:46:06;;;;;;;16.88;8.23;;;;;;;1.94;100.00;102218.84;4952819;28;20058;-80
2023/02/27 00:48:32;;;;;;;24.50;11.68;;;;;;;1.91;100.00;102225.94;4947248;28;20073;-79
2023/02/27 00:50:58;;;;;;;20.33;7.50;;;;;;;1.90;100.00;102222.47;4950975;28;20061;-80
2023/02/27 00:53:24;;;;;;;22.05;6.45;;;;;;;1.84;100.00;102218.28;4953907;28;20038;-79
2023/02/27 00:55:49;;;;;;;19.52;7.47;;;;;;;1.78;100.00;102215.84;4953454;28;20043;-80
2023/02/27 00:58:16;;;;;;;14.07;5.70;;;;;;;1.76;100.00;102214.16;4943122;28;20039;-80
2023/02/27 01:00:41;;;;;;;21.05;7.85;;;;;;;1.76;100.00;102211.56;4965797;28;20050;-80
2023/02/27 01:03:07;;;;;;;13.40;6.35;;;;;;;1.75;100.00;102208.13;4948791;28;20101;-79
2023/02/27 01:05:33;;;;;;;15.60;5.97;;;;;;;1.79;100.00;102212.34;4934983;29;20130;-80
2023/02/27 01:07:59;;;;;;;18.65;6.68;;;;;;;1.85;100.00;102204.34;4946920;28;20035;-79
2023/02/27 01:10:24;;;;;;;15.00;5.65;;;;;;;1.91;100.00;102202.47;4954050;28;20499;-79
2023/02/27 01:12:50;;;;;;;15.13;5.03;;;;;;;1.95;100.00;102199.72;4938788;28;20042;-80
2023/02/27 01:15:16;;;;;;;15.60;5.28;;;;;;;1.98;100.00;102201.38;4954128;28;20063;-80
2023/02/27 01:17:42;;;;;;;12.65;5.22;;;;;;;1.98;100.00;102201.38;4951555;29;20035;-80
2023/02/27 01:20:10;;;;;;;17.35;6.15;;;;;;;1.96;100.00;102201.41;4950150;28;20035;-80
2023/02/27 01:22:36;;;;;;;12.50;5.03;;;;;;;1.93;100.00;102204.13;4921194;28;20407;-79
2023/02/27 01:25:03;;;;;;;20.00;5.95;;;;;;;1.92;100.00;102206.78;4933046;29;20035;-80
2023/02/27 01:27:29;;;;;;;14.25;4.78;;;;;;;1.92;100.00;102202.41;4965396;28;20038;-80
2023/02/27 01:29:54;;;;;;;16.40;5.03;;;;;;;1.93;100.00;102193.69;4937695;28;20411;-79
2023/02/27 01:32:22;;;;;;;13.82;4.68;;;;;;;1.94;100.00;102200.59;4944570;28;20093;-80
2023/02/27 01:34:48;;;;;;;17.48;5.40;;;;;;;1.81;100.00;102202.72;4954336;28;20042;-80
2023/02/27 01:37:13;;;;;;;16.30;6.15;;;;;;;1.67;100.00;102202.25;4954428;28;20042;-79
2023/02/27 01:39:41;;;;;;;10.40;4.70;;;;;;;1.41;100.00;102207.28;4925347;28;20407;-80
2023/02/27 01:42:21;;;;;;;11.68;4.88;;;;;;;1.20;100.00;102203.47;4951172;28;20035;-80
2023/02/27 01:45:16;;;;;;;13.80;4.35;;;;;;;1.08;100.00;102195.06;4930223;28;20046;-80
2023/02/27 01:47:51;;;;;;;15.98;5.43;;;;;;;1.07;100.00;102190.75;4950294;29;20062;-80
2023/02/27 01:50:18;;;;;;;11.82;4.47;;;;;;;1.14;100.00;102203.63;4947180;28;20043;-80
2023/02/27 01:52:48;;;;;;;13.88;5.30;;;;;;;1.23;100.00;102200.78;4938067;28;20038;-80
2023/02/27 01:55:14;;;;;;;15.15;5.53;;;;;;;1.24;100.00;102192.94;4953924;28;20035;-79
2023/02/27 01:57:45;;;;;;;16.58;3.97;;;;;;;1.16;100.00;102199.25;4956367;28;20419;-80
2023/02/27 02:00:12;;;;;;;9.25;4.18;;;;;;;0.98;100.00;102196.22;4951656;28;20042;-79
2023/02/27 02:02:53;;;;;;;11.60;4.70;;;;;;;0.82;100.00;102201.78;4969602;28;20080;-79
2023/02/27 02:05:20;;;;;;;10.90;4.25;;;;;;;0.75;100.00;102197.59;4953318;28;20443;-79
2023/02/27 02:07:46;;;;;;;13.95;4.75;;;;;;;0.73;100.00;102200.25;4963265;28;20031;-79
2023/02/27 02:10:15;;;;;;;14.55;4.85;;;;;;;0.79;100.00;102199.25;4957186;28;20039;-80
2023/02/27 02:12:42;;;;;;;16.38;5.38;;;;;;;0.88;100.00;102202.53;4972402;28;20093;-79
2023/02/27 02:15:08;;;;;;;18.00;4.65;;;;;;;0.95;100.00;102207.56;4938887;28;20038;-79
2023/02/27 02:17:55;;;;;;;16.50;5.13;;;;;;;0.97;100.00;102205.75;4920953;28;20168;-80
2023/02/27 02:21:03;;;;;;;15.68;4.90;;;;;;;0.94;100.00;102195.41;4956402;28;20034;-79
2023/02/27 02:23:55;;;;;;;14.57;5.72;;;;;;;0.90;100.00;102203.34;4953478;28;20049;-79
2023/02/27 02:26:34;;;;;;;21.45;5.93;;;;;;;0.88;100.00;102202.53;4935948;28;20583;-79
2023/02/27 02:29:08;;;;;;;16.73;5.20;;;;;;;0.90;100.00;102201.59;4953682;28;20057;-79
2023/02/27 02:32:00;;;;;;;16.77;4.88;;;;;;;1.01;100.00;102196.13;4970497;28;20474;-79
2023/02/27 02:34:50;;;;;;;16.35;5.47;;;;;;;1.05;100.00;102196.91;4931511;28;20145;-80
2023/02/27 02:37:47;;;;;;;18.80;7.13;;;;;;;1.11;100.00;102200.19;4942031;29;20042;-79
2023/02/27 02:40:40;;;;;;;14.10;5.68;;;;;;;1.17;100.00;102201.81;4954051;28;20086;-79
2023/02/27 02:43:13;;;;;;;13.43;5.40;;;;;;;1.21;100.00;102205.19;4954896;28;20042;-79
2023/02/27 02:45:50;;;;;;;17.67;5.35;;;;;;;1.21;100.00;102216.44;4946649;29;20039;-80
2023/02/27 02:48:37;;;;;;;15.25;5.32;;;;;;;1.25;100.00;102219.84;4953402;28;20042;-80
2023/02/27 02:51:34;;;;;;;14.90;6.53;;;;;;;1.24;100.00;102218.16;4937535;28;20041;-79
2023/02/27 02:54:04;;;;;;;;;;;;;;;1.19;100.00;102222.59;4966639;28;20050;-80
2023/02/27 02:56:33;;;;;;;19.45;4.97;;;;;;;1.16;100.00;102220.06;4956651;28;19966;-80
2023/02/27 02:59:11;;;;;;;15.18;4.90;;;;;;;1.16;100.00;102226.16;4941403;28;20450;-79
2023/02/27 03:01:49;;;;;;;11.70;4.82;;;;;;;1.11;100.00;102221.03;4941433;28;20054;-79
2023/02/27 03:04:27;;;;;;;13.00;5.10;;;;;;;1.02;100.00;102223.88;4966840;28;20491;-79
2023/02/27 03:07:03;;;;;;;15.75;5.32;;;;;;;0.99;100.00;102231.75;4948233;28;20418;-79
2023/02/27 03:09:33;;;;;;;11.23;3.83;;;;;;;0.95;100.00;102231.00;4939194;28;20146;-80
2023/02/27 03:12:04;;;;;;;13.55;5.63;;;;;;;1.04;100.00;102232.50;4947448;28;20070;-80
2023/02/27 03:14:38;;;;;;;13.27;6.10;;;;;;;1.17;100.00;102229.59;4944327;28;20038;-79
2023/02/27 03:17:17;;;;;;;15.65;6.00;;;;;;;1.25;100.00;102227.66;4956646;28;20037;-80
2023/02/27 03:19:56;;;;;;;15.65;4.93;;;;;;;1.29;100.00;102229.28;4955879;28;20476;-80
2023/02/27 03:22:31;;;;;;;10.77;4.68;;;;;;;1.32;100.00;102228.38;4928358;28;20114;-79
2023/02/27 03:25:00;;;;;;;16.40;4.70;;;;;;;1.29;100.00;102237.09;4955224;28;20479;-80
2023/02/27 03:27:34;;;;;;;11.70;4.85;;;;;;;1.28;100.00;102224.97;4924816;28;20041;-80
2023/02/27 03:30:18;;;;;;;8.90;4.28;;;;;;;1.29;100.00;102221.47;4973168;28;20109;-79
2023/02/27 03:33:09;;;;;;;8.65;3.88;;;;;;;1.31;100.00;102229.25;4960283;28;20042;-80
2023/02/27 03:35:41;;;;;;;13.75;4.95;;;;;;;1.32;100.00;102231.81;4931569;28;20038;-79
2023/02/27 03:38:34;;;;;;;16.25;3.65;;;;;;;1.38;100.00;102229.94;4933414;28;20070;-80
2023/02/27 03:41:04;;;;;;;14.38;3.95;;;;;;;1.40;100.00;102233.38;4933037;28;20034;-80
2023/02/27 03:43:46;;;;;;;;;;;;;;;1.32;100.00;102230.97;4940531;29;20035;-80
2023/02/27 03:46:16;;;;;;;17.52;4.85;;;;;;;1.27;100.00;102225.00;4954047;28;20499;-79
2023/02/27 03:48:43;;;;;;;16.25;4.32;;;;;;;1.25;100.00;102222.44;4955446;28;20038;-79
2023/02/27 03:51:16;;;;;;;11.65;5.25;;;;;;;1.28;100.00;102218.91;4952561;28;20042;-79
2023/02/27 03:54:01;;;;;;;11.15;4.55;;;;;;;1.25;100.00;102225.06;4971159;28;20035;-79
2023/02/27 03:56:57;;;;;;;12.48;4.35;;;;;;;1.18;100.00;102226.94;4939030;28;20030;-79
2023/02/27 03:59:24;;;;;;;;;;;;;;;1.12;100.00;102227.09;4937277;28;20049;-80
2023/02/27 04:01:53;;;;;;;11.88;3.33;;;;;;;1.07;100.00;102215.94;4972429;28;19953;-79
2023/02/27 04:04:20;;;;;;;11.75;4.63;;;;;;;1.01;100.00;102226.50;4941507;28;20035;-80
2023/02/27 04:07:58;;;;;;;9.55;4.75;;;;;;;0.94;100.00;102220.63;4929542;28;20089;-80
2023/02/27 04:10:43;;;;;;;7.57;3.75;;;;;;;0.96;100.00;102219.69;4912530;28;20054;-80
2023/02/27 04:13:26;;;;;;;9.88;4.25;;;;;;;0.95;100.00;102228.41;4940085;28;20097;-80
2023/02/27 04:16:14;;;;;;;13.35;4.05;;;;;;;0.94;100.00;102226.66;4938223;28;20074;-79
2023/02/27 04:18:52;;;;;;;11.70;4.40;;;;;;;0.82;100.00;102225.22;4939135;28;20049;-80
2023/02/27 04:21:51;;;;;;;6.90;3.65;;;;;;;0.78;100.00;102222.72;4955674;28;20038;-80
2023/02/27 04:24:26;;;;;;;12.75;4.35;;;;;;;0.73;100.00;102222.84;4972469;28;20045;-80
2023/02/27 04:27:03;;;;;;;14.80;4.75;;;;;;;0.79;100.00;102227.91;4939322;28;20042;-79
2023/02/27 04:29:40;;;;;;;13.93;4.63;;;;;;;0.79;100.00;102225.28;4954750;28;20126;-79
2023/02/27 04:32:21;;;;;;;16.63;4.40;;;;;;;0.79;100.00;102227.91;4955121;28;20093;-80
2023/02/27 04:34:55;;;;;;;17.85;5.05;;;;;;;0.74;100.00;102235.81;4938447;28;20045;-80
2023/02/27 04:37:29;;;;;;;16.17;4.57;;;;;;;0.73;100.00;102222.84;4947841;28;22810;-79
2023/02/27 04:40:05;;;;;;;9.35;4.05;;;;;;;0.74;100.00;102232.34;4937318;28;20089;-80
2023/02/27 04:42:34;;;;;;;10.30;4.72;;;;;;;0.76;100.00;102230.56;4971527;28;20506;-80
2023/02/27 04:45:04;;;;;;;14.73;4.07;;;;;;;0.82;100.00;102233.03;4954776;28;20372;-79
2023/02/27 04:47:35;;;;;;;10.43;3.30;;;;;;;0.86;100.00;102236.44;4953069;28;20467;-80
2023/02/27 04:50:13;;;;;;;10.05;3.78;;;;;;;0.93;100.00;102237.97;4953577;28;20050;-79
2023/02/27 04:52:54;;;;;;;11.10;4.72;;;;;;;1.00;100.00;102238.69;4934889;28;20045;-79
2023/02/27 04:55:21;;;;;;;13.18;4.50;;;;;;;1.04;100.00;102226.44;4971250;28;20114;-80
2023/02/27 04:58:01;;;;;;;14.50;4.82;;;;;;;1.04;100.00;102235.13;4939116;29;20039;-79
2023/02/27 05:00:30;;;;;;;12.38;5.22;;;;;;;1.02;100.00;102234.28;4962585;28;20488;-79
2023/02/27 05:03:04;;;;;;;14.27;4.90;;;;;;;0.96;100.00;102239.66;4953958;28;20049;-79
2023/02/27 05:05:34;;;;;;;10.30;3.67;;;;;;;0.88;100.00;102237.22;4970174;28;20352;-80
2023/02/27 05:08:08;;;;;;;11.63;4.18;;;;;;;0.84;100.00;102238.19;4956689;28;20116;-79
2023/02/27 05:10:56;;;;;;;14.73;4.63;;;;;;;0.86;100.00;102236.44;4970772;28;20077;-79
2023/02/27 05:13:45;;;;;;;13.63;3.78;;;;;;;0.88;100.00;102239.00;4935342;28;20035;-79
2023/02/27 05:16:11;;;;;;;8.88;4.30;;;;;;;0.86;100.00;102234.66;4970850;28;20035;-79
2023/02/27 05:18:37;;;;;;;12.80;4.18;;;;;;;0.95;100.00;102236.22;4972194;28;20049;-79
2023/02/27 05:21:21;;;;;;;10.15;3.90;;;;;;;1.07;100.00;102232.44;4955562;28;20062;-77
2023/02/27 05:24:17;;;;;;;19.42;4.38;;;;;;;1.18;100.00;102223.50;4938151;28;20122;-77
2023/02/27 05:26:52;;;;;;;10.65;4.45;;;;;;;1.23;100.00;102219.88;4934815;28;20117;-77
2023/02/27 05:29:30;;;;;;;7.60;3.90;;;;;;;1.25;100.00;102217.25;4954736;28;20495;-77
2023/02/27 05:32:17;;;;;;;12.10;4.72;;;;;;;1.20;100.00;102217.34;4938905;28;20034;-79
2023/02/27 05:34:56;;;;;;;17.10;4.70;;;;;;;1.18;100.00;102226.13;4964418;28;20070;-79
2023/02/27 05:37:30;;;;;;;15.52;4.07;;;;;;;1.13;100.00;102225.38;4952173;28;20161;-79
2023/02/27 05:39:57;;;;;;;12.25;4.60;;;;;;;1.14;100.00;102214.03;4953447;28;20031;-79
2023/02/27 05:42:31;;;;;;;7.50;4.18;;;;;;;1.15;100.00;102221.00;4938412;28;20030;-79
2023/02/27 05:45:18;;;;;;;9.65;5.03;;;;;;;1.02;100.00;102218.66;4964149;28;20030;-79
2023/02/27 05:47:51;;;;;;;14.55;5.10;;;;;;;0.97;100.00;102225.75;4972027;28;20085;-79
2023/02/27 05:50:23;;;;;;;11.35;4.90;;;;;;;1.02;100.00;102225.63;4971587;28;20039;-79
2023/02/27 05:52:52;;;;;;;12.02;4.88;;;;;;;1.03;100.00;102236.00;4935550;28;20444;-79
2023/02/27 05:55:22;;;;;;;12.68;4.80;;;;;;;1.08;100.00;102225.47;4951091;28;20042;-79
2023/02/27 05:57:56;;;;;;;10.00;4.93;;;;;;;1.15;100.00;102228.81;4974068;28;20031;-79
2023/02/27 06:00:43;;;;;;;11.10;4.45;;;;;;;1.20;100.00;102224.31;4931469;28;20035;-79
2023/02/27 06:03:08;;;;;;;;;;;;;;;1.16;100.00;102231.38;4970088;28;20038;-79
2023/02/27 06:05:37;;;;;;;11.70;4.25;;;;;;;1.18;100.00;102226.94;4949964;28;19925;-80
2023/02/27 06:08:03;;;;;;;9.75;4.45;;;;;;;1.19;100.00;102218.25;4973620;28;20027;-79
2023/02/27 06:10:28;;;;;;;12.63;4.90;;;;;;;1.18;100.00;102236.53;4941073;28;20502;-79
2023/02/27 06:12:54;;;;;;;8.07;4.53;;;;;;;1.14;100.00;102230.53;4936305;28;20126;-79
2023/02/27 06:15:21;;;;;;;8.57;4.30;;;;;;;1.11;100.00;102228.84;4952829;28;20372;-79
2023/02/27 06:17:47;;;;;;;15.18;4.75;;;;;;;1.07;100.00;102232.44;4944695;28;20042;-79
2023/02/27 06:20:13;;;;;;;10.32;4.47;;;;;;;1.09;100.00;102232.38;4950803;28;20023;-80
2023/02/27 06:22:39;;;;;;;9.77;4.97;;;;;;;1.13;100.00;102227.97;4965025;28;20622;-79
2023/02/27 06:25:05;;;;;;;14.82;4.50;;;;;;;1.16;100.00;102227.91;4949708;29;20401;-80
2023/02/27 06:27:31;;;;;;;9.43;3.78;;;;;;;1.16;100.00;102226.16;4933128;28;20069;-79
2023/02/27 06:29:57;;;;;;;9.63;3.70;;;;;;;1.16;100.00;102228.75;4950739;28;20491;-79
2023/02/27 06:32:24;;;;;;;16.42;4.63;;;;;;;1.16;100.00;102220.94;4955599;28;20058;-79
2023/02/27 06:34:51;;;;;;;12.55;3.90;;;;;;;1.18;100.00;102228.72;4955287;28;20061;-79
2023/02/27 06:37:17;;;;;;;13.18;4.32;;;;;;;1.17;100.00;102227.00;4956707;28;20034;-79
2023/02/27 06:39:42;;;;;;;15.77;4.13;;;;;;;1.20;100.00;102233.00;4952184;29;20148;-79
2023/02/27 06:42:08;;;;;;;10.00;3.83;;;;;;;1.19;100.00;102227.81;4971275;28;20057;-79
2023/02/27 06:44:34;;;;;;;18.17;5.18;;;;;;;1.19;100.00;102233.88;4940438;28;20379;-79
2023/02/27 06:47:00;;;;;;;7.05;3.25;;;;;;;1.23;100.00;102237.25;4943615;28;20129;-77
2023/02/27 06:49:26;;;;;;;9.68;3.58;;;;;;;1.22;100.00;102241.63;4973842;28;20047;-77
2023/02/27 06:51:51;;;;;;;15.30;5.30;;;;;;;1.20;100.00;102245.16;4965025;28;20027;-77
2023/02/27 06:54:17;;;;;;;11.15;4.28;;;;;;;1.18;100.00;102246.94;4972153;28;20039;-77
2023/02/27 06:56:43;;;;;;;9.63;3.60;;;;;;;1.16;100.00;102243.53;4941006;28;20408;-79
2023/02/27 06:59:09;;;;;;;8.77;4.00;;;;;;;1.17;100.00;102253.91;4940149;28;20506;-79
2023/02/27 07:01:34;;;;;;;11.07;3.22;;;;;;;1.16;100.00;102252.19;4932885;29;20058;-80
2023/02/27 07:04:00;;;;;;;14.73;3.15;;;;;;;1.17;100.00;102253.03;4951621;29;20440;-79
2023/02/27 07:06:26;;;;;;;12.18;4.15;;;;;;;1.16;100.00;102261.75;4951024;29;20058;-79
2023/02/27 07:08:52;;;;;;;12.32;4.40;;;;;;;1.12;100.00;102266.19;4960403;28;20027;-79
2023/02/27 07:11:18;;;;;;;7.97;3.60;;;;;;;1.07;100.00;102257.59;4952996;28;20035;-79
2023/02/27 07:13:44;;;;;;;8.48;3.53;;;;;;;1.04;100.00;102270.72;4954786;28;20027;-79
2023/02/27 07:16:09;;;;;;;11.25;3.25;;;;;;;1.02;100.00;102267.31;4936348;29;20035;-77
2023/02/27 07:18:35;;;;;;;14.23;4.40;;;;;;;1.02;100.00;102265.53;4920452;29;20078;-77
2023/02/27 07:21:02;;;;;;;14.18;3.35;;;;;;;1.03;100.00;102267.28;4952618;29;20118;-79
2023/02/27 07:23:28;;;;;;;16.98;4.65;;;;;;;1.03;100.00;102271.59;4956910;28;20067;-79
2023/02/27 07:25:53;;;;;;;10.95;3.30;;;;;;;1.02;100.00;102268.13;4952419;29;20109;-77
2023/02/27 07:28:19;;;;;;;15.50;4.20;;;;;;;0.96;100.00;102274.34;4950890;28;20122;-77
2023/02/27 07:30:45;;;;;;;8.88;3.58;;;;;;;0.94;100.00;102277.91;4916259;29;20496;-79
2023/02/27 07:33:11;;;;;;;10.30;3.80;;;;;;;0.92;100.00;102290.09;4951049;28;20043;-79
2023/02/27 07:35:37;;;;;;;7.10;3.88;;;;;;;0.95;100.00;102292.63;4942564;28;20047;-79
2023/02/27 07:38:03;;;;;;;9.70;4.05;;;;;;;0.96;100.00;102289.97;4950062;28;20035;-76
2023/02/27 07:40:29;;;;;;;12.40;4.18;;;;;;;0.99;100.00;102287.31;4949708;28;20035;-77
2023/02/27 07:42:55;;;;;;;11.00;4.93;;;;;;;1.04;100.00;102295.00;4951279;28;20396;-79
2023/02/27 07:45:21;;;;;;;9.48;4.25;;;;;;;1.07;100.00;102294.94;4921911;29;20062;-80
2023/02/27 07:47:48;;;;;;;7.00;3.35;;;;;;;1.13;100.00;102293.09;4938848;29;20035;-77
2023/02/27 07:50:14;;;;;;;12.45;3.58;;;;;;;1.21;100.00;102296.38;4930136;29;20063;-76
2023/02/27 07:52:41;;;;;;;19.23;4.75;;;;;;;1.26;100.00;102302.31;4949432;28;20504;-76
2023/02/27 07:55:09;;;;;;;14.25;4.68;;;;;;;1.31;100.00;102295.25;4947489;28;20042;-76
2023/02/27 07:57:35;;;;;;;9.32;4.32;;;;;;;1.34;100.00;102305.59;4876900;28;20042;-79
2023/02/27 08:00:05;;;;;;;12.00;3.90;;;;;;;1.42;100.00;102292.38;4934425;29;20055;-79
2023/02/27 08:02:38;;;;;;;11.90;4.55;;;;;;;1.48;100.00;102300.03;4950242;29;20047;-76
2023/02/27 08:05:05;;;;;;;8.30;3.47;;;;;;;1.56;100.00;102305.03;4951210;29;20480;-76
2023/02/27 08:07:30;;;;;;;10.63;4.22;;;;;;;1.60;100.00;102304.09;4950388;28;20073;-79
2023/02/27 08:09:56;;;;;;;14.05;3.95;;;;;;;1.61;100.00;102305.78;4933932;29;20441;-79
2023/02/27 08:12:22;;;;;;;16.70;4.22;;;;;;;1.67;100.00;102301.31;4949612;29;20037;-76
2023/02/27 08:14:48;;;;;;;8.80;3.90;;;;;;;1.70;100.00;102306.44;4933539;29;20043;-76
2023/02/27 08:17:14;;;;;;;12.85;4.25;;;;;;;1.73;100.00;102315.06;4949952;28;20038;-79
2023/02/27 08:19:40;;;;;;;15.55;5.70;;;;;;;1.75;100.00;102312.41;4910115;29;20038;-79
2023/02/27 08:22:06;;;;;;;11.75;4.72;;;;;;;1.77;100.00;102307.97;4933037;29;20039;-79
2023/02/27 08:24:32;;;;;;;12.55;5.28;;;;;;;1.79;100.00;102305.34;4954007;28;20059;-79
2023/02/27 08:26:58;;;;;;;10.13;3.90;;;;;;;1.82;100.00;102316.56;4890677;28;20640;-79
2023/02/27 08:29:24;;;;;;;10.85;4.65;;;;;;;1.88;100.00;102315.53;4949708;28;20042;-79
2023/02/27 08:31:50;;;;;;;15.18;5.03;;;;;;;1.93;100.00;102313.66;4937099;29;20051;-79
2023/02/27 08:34:16;;;;;;;14.85;5.22;;;;;;;1.95;100.00;102308.41;4952279;29;20038;-79
2023/02/27 08:36:41;;;;;;;9.02;4.18;;;;;;;1.99;100.00;102307.44;4944130;29;20570;-79
2023/02/27 08:39:08;;;;;;;11.00;4.15;;;;;;;2.07;100.00;102317.66;4928365;29;20040;-78
2023/02/27 08:41:34;;;;;;;10.02;4.72;;;;;;;2.12;100.00;102307.09;4952831;28;20035;-79
2023/02/27 08:44:00;;;;;;;15.90;6.05;;;;;;;2.16;100.00;102300.88;4946993;28;20117;-79
2023/02/27 08:46:26;;;;;;;12.88;6.32;;;;;;;2.16;100.00;102309.56;4953081;29;20505;-79
2023/02/27 08:48:52;;;;;;;17.52;5.82;;;;;;;2.16;100.00;102308.69;4950800;29;20027;-79
2023/02/27 08:51:17;;;;;;;14.90;7.50;;;;;;;2.14;100.00;102306.13;4944546;28;20046;-79
2023/02/27 08:53:43;;;;;;;14.10;6.78;;;;;;;2.14;100.00;102308.75;4950018;29;20039;-79
2023/02/27 08:56:09;;;;;;;19.15;7.30;;;;;;;2.18;100.00;102310.34;4951487;28;20408;-79
2023/02/27 08:58:35;;;;;;;15.05;6.82;;;;;;;2.25;100.00;102323.22;4924819;29;20074;-79
2023/02/27 09:01:01;;;;;;;15.80;7.40;;;;;;;2.31;100.00;102320.47;4948392;29;20114;-79
2023/02/27 09:03:27;;;;;;;19.52;7.53;;;;;;;2.35;100.00;102324.69;4951121;28;20078;-79
2023/02/27 09:05:54;;;;;;;15.82;6.15;;;;;;;2.44;100.00;102323.56;4951021;29;20039;-79
2023/02/27 09:08:21;;;;;;;12.32;5.15;;;;;;;2.50;100.00;102325.16;4879149;29;20038;-79
2023/02/27 09:10:47;;;;;;;14.40;7.75;;;;;;;2.54;100.00;102329.38;4957250;28;20067;-79
2023/02/27 09:13:13;;;;;;;15.25;4.65;;;;;;;2.58;100.00;102328.41;4951081;29;20517;-79
2023/02/27 09:15:39;;;;;;;16.40;5.35;;;;;;;2.63;100.00;102328.28;4948302;28;20031;-79
2023/02/27 09:18:05;;;;;;;18.08;4.93;;;;;;;2.69;100.00;102328.91;4948315;29;20038;-79
2023/02/27 09:20:36;;;;;;;14.32;5.28;;;;;;;2.75;100.00;102327.91;4950827;29;20038;-79
2023/02/27 09:23:02;;;;;;;15.35;5.25;;;;;;;2.77;100.00;102330.47;4945547;29;20039;-76
2023/02/27 09:25:28;;;;;;;11.40;4.63;;;;;;;2.82;100.00;102333.81;4951380;29;20403;-76
2023/02/27 09:27:55;;;;;;;11.43;4.82;;;;;;;2.86;100.00;102338.03;4934682;29;20063;-77
2023/02/27 09:30:21;;;;;;;11.45;4.57;;;;;;;2.91;100.00;102330.91;4951976;28;20035;-76
2023/02/27 09:32:47;;;;;;;9.18;4.05;;;;;;;2.97;100.00;102335.06;4947664;28;20066;-79
2023/02/27 09:35:15;;;;;;;13.35;4.10;;;;;;;3.01;100.00;102341.91;4955264;28;20415;-79
2023/02/27 09:37:42;;;;;;;12.85;4.90;;;;;;;3.08;100.00;102343.44;4966715;28;20368;-79
2023/02/27 09:40:21;;;;;;;11.55;3.97;;;;;;;3.15;100.00;102341.50;4951001;29;20031;-79
2023/02/27 09:42:47;;;;;;;12.70;4.70;;;;;;;3.17;100.00;102344.06;4950783;29;20063;-79
2023/02/27 09:45:26;;;;;;;8.25;4.47;;;;;;;3.22;100.00;102356.06;4951664;29;20380;-79
2023/02/27 09:47:55;;;;;;;12.80;3.78;;;;;;;3.25;100.00;102354.25;4935013;29;20035;-80
2023/02/27 09:50:35;;;;;;;15.18;4.07;;;;;;;3.29;100.00;102359.34;4949867;28;20039;-79
2023/02/27 09:53:04;;;;;;;9.50;3.38;;;;;;;3.29;100.00;102348.88;4958123;28;20045;-76
2023/02/27 09:55:37;;;;;;;9.23;3.40;;;;;;;3.35;100.00;102359.16;4951523;29;20038;-76
2023/02/27 09:58:30;;;;;;;15.88;4.70;;;;;;;3.38;100.00;102358.19;4956195;28;20038;-79
2023/02/27 10:01:09;;;;;;;7.57;3.58;;;;;;;3.45;100.00;102366.69;4962391;28;20111;-79
2023/02/27 10:04:04;;;;;;;19.38;3.92;;;;;;;3.44;100.00;102363.22;4941194;28;20170;-80
2023/02/27 10:06:36;;;;;;;12.73;5.07;;;;;;;3.45;100.00;102357.09;4937179;28;20050;-79
2023/02/27 10:09:17;;;;;;;11.20;3.92;;;;;;;3.47;100.00;102357.88;4962036;28;20038;-79
2023/02/27 10:11:50;;;;;;;8.18;3.47;;;;;;;3.61;100.00;102353.97;4955463;28;20433;-79
2023/02/27 10:14:34;;;;;;;8.77;3.58;;;;;;;3.68;100.00;102355.47;4957465;28;20060;-80
2023/02/27 10:17:05;;;;;;;8.13;3.75;;;;;;;3.72;100.00;102369.28;4957548;28;20046;-80
2023/02/27 10:19:35;;;;;;;13.20;4.32;;;;;;;3.77;100.00;102369.13;4952757;28;20035;-79
2023/02/27 10:22:05;;;;;;;10.15;4.25;;;;;;;3.78;100.00;102365.59;4972751;28;20027;-79
2023/02/27 10:24:38;;;;;;;6.88;3.63;;;;;;;3.84;100.00;102366.25;4974818;28;20157;-80
2023/02/27 10:27:05;;;;;;;5.82;3.40;;;;;;;3.89;100.00;102365.25;4966542;28;20034;-79
2023/02/27 10:29:38;;;;;;;12.75;3.85;;;;;;;3.96;100.00;102364.13;4958236;28;20034;-79
2023/02/27 10:32:17;;;;;;;9.00;3.58;;;;;;;4.00;100.00;102357.88;4941811;28;20101;-80
2023/02/27 10:34:50;;;;;;;13.10;3.53;;;;;;;4.03;100.00;102364.78;4959282;28;20084;-79
2023/02/27 10:37:19;;;;;;;10.27;3.38;;;;;;;4.10;100.00;102363.66;4983593;28;20117;-77
2023/02/27 10:39:55;;;;;;;11.35;4.00;;;;;;;4.13;100.00;102360.06;4961147;28;20035;-76
2023/02/27 10:42:23;;;;;;;;;;;;;;;4.07;100.00;102369.84;4952958;28;20081;-80
2023/02/27 10:44:52;;;;;;;7.38;3.22;;;;;;;4.08;100.00;102361.09;4968287;28;19920;-80
2023/02/27 10:47:23;;;;;;;9.48;3.25;;;;;;;4.20;100.00;102361.56;4956149;28;20048;-80
2023/02/27 10:49:50;;;;;;;12.93;3.63;;;;;;;4.30;100.00;102356.84;4971074;28;20027;-80
2023/02/27 10:52:17;;;;;;;8.55;3.67;;;;;;;4.36;100.00;102369.72;4951668;28;20042;-80
2023/02/27 10:54:44;;;;;;;8.65;3.90;;;;;;;4.44;100.00;102358.97;4955002;28;20063;-80
2023/02/27 10:57:32;;;;;;;12.07;4.05;;;;;;;4.54;100.00;102359.50;4952353;28;20066;-79
2023/02/27 11:00:04;;;;;;;14.93;3.78;;;;;;;4.54;100.00;102356.88;4957829;28;20142;-79
2023/02/27 11:02:40;;;;;;;13.27;3.03;;;;;;;4.59;100.00;102360.16;4943913;29;20447;-79
2023/02/27 11:05:21;;;;;;;19.33;2.92;;;;;;;4.67;100.00;102359.84;4935421;29;20059;-79
2023/02/27 11:07:47;;;;;;;15.73;2.67;;;;;;;4.65;100.00;102356.47;4945010;28;20446;-79
2023/02/27 11:10:12;;;;;;;7.15;2.53;;;;;;;4.70;100.00;102355.38;4938571;28;20031;-79
2023/02/27 11:12:40;;;;;;;6.18;2.65;;;;;;;4.82;100.00;102358.44;4942034;28;20046;-76
2023/02/27 11:15:15;;;;;;;9.15;3.17;;;;;;;4.91;100.00;102357.22;4956504;28;20498;-76
2023/02/27 11:17:42;;;;;;;9.80;2.47;;;;;;;4.90;100.00;102364.25;4960722;28;20064;-76
2023/02/27 11:20:39;;;;;;;8.30;2.63;;;;;;;5.12;100.00;102365.16;4976853;28;20097;-76
2023/02/27 11:23:12;;;;;;;;;;;;;;;5.22;100.00;102366.50;4970957;28;20031;-79
2023/02/27 11:25:38;;;;;;;7.72;1.40;;;;;;;5.27;100.00;102369.78;4962463;28;20283;-78
2023/02/27 11:28:27;;;;;;;4.82;1.52;;;;;;;5.44;100.00;102361.25;4942289;28;20043;-79
2023/02/27 11:30:58;;;;;;;4.45;1.55;;;;;;;5.61;100.00;102364.06;4968504;28;20066;-79
2023/02/27 11:33:25;;;;;;;3.92;1.33;;;;;;;5.66;100.00;102356.88;4975387;28;20669;-79
2023/02/27 11:35:54;;;;;;;4.60;1.08;;;;;;;5.62;100.00;102356.16;4954688;28;20066;-76
2023/02/27 11:38:25;;;;;;;6.97;1.35;;;;;;;5.81;100.00;102352.75;4953182;28;20518;-76
2023/02/27 11:40:58;;;;;;;4.60;0.95;;;;;;;5.82;100.00;102347.44;4973717;28;20046;-79